createdAt,value
2022-11-05T06:54:46.206Z,0.60
2022-11-05T06:57:47.879Z,0.70
2022-11-05T07:00:49.697Z,0.40
2022-11-05T07:03:51.655Z,0.45
2022-11-05T07:06:53.352Z,0.73
2022-11-05T07:09:54.999Z,0.20
2022-11-05T07:12:56.976Z,0.88
2022-11-05T07:15:58.798Z,0.85
2022-11-05T07:19:00.514Z,0.93
2022-11-05T07:22:02.193Z,1.00
2022-11-05T07:25:05.889Z,0.63
2022-11-05T07:28:07.745Z,0.45
2022-11-05T07:31:09.620Z,0.47
2022-11-05T07:34:11.506Z,0.60
2022-11-05T07:37:13.322Z,0.95
2022-11-05T07:40:15.692Z,1.17
2022-11-05T07:43:17.416Z,0.77
2022-11-05T07:46:19.153Z,0.88
2022-11-05T07:49:20.869Z,0.40
2022-11-05T07:52:22.672Z,1.55
2022-11-05T07:55:24.888Z,1.00
2022-11-05T07:58:26.669Z,1.17
2022-11-05T08:01:28.675Z,0.70
2022-11-05T08:04:31.073Z,1.23
2022-11-05T08:07:32.947Z,0.90
2022-11-05T08:10:34.779Z,1.55
2022-11-05T08:13:37.032Z,0.47
2022-11-05T08:16:38.701Z,0.75
2022-11-05T08:19:40.487Z,0.70
2022-11-05T08:22:46.150Z,0.88
2022-11-05T08:25:47.996Z,0.85
2022-11-05T08:28:49.722Z,0.98
2022-11-05T08:31:51.433Z,1.00
2022-11-05T08:34:53.208Z,0.73
2022-11-05T08:38:02.788Z,0.50
2022-11-05T08:44:09.892Z,0.98
2022-11-05T08:47:11.601Z,0.93
2022-11-05T08:50:13.284Z,0.85
2022-11-05T08:53:15.445Z,2.33
2022-11-05T08:56:17.288Z,0.90
2022-11-05T08:59:19.040Z,0.70
2022-11-05T09:02:20.801Z,1.25
2022-11-05T09:05:22.571Z,0.70
2022-11-05T09:08:24.211Z,0.95
2022-11-05T09:11:43.013Z,1.02
2022-11-05T09:20:52.759Z,1.55
2022-11-05T09:23:54.651Z,1.33
2022-11-05T09:26:56.302Z,0.60
2022-11-05T09:29:57.912Z,1.15
2022-11-05T09:32:59.620Z,0.77
2022-11-05T09:36:01.284Z,0.60
2022-11-05T09:39:02.975Z,1.17
2022-11-05T09:42:08.492Z,0.77
2022-11-05T09:45:13.584Z,0.70
2022-11-05T09:48:16.148Z,1.02
2022-11-05T09:51:23.439Z,1.33
2022-11-05T09:54:28.453Z,0.50
2022-11-05T09:57:37.167Z,1.40
2022-11-05T10:00:39.504Z,0.50
2022-11-05T10:03:46.609Z,1.58
2022-11-05T10:06:52.052Z,1.77
2022-11-05T10:10:05.397Z,1.23
2022-11-05T10:13:22.505Z,1.50
2022-11-05T10:16:32.587Z,1.05
2022-11-05T10:19:42.804Z,1.70
2022-11-05T10:22:49.261Z,1.13
2022-11-05T10:25:56.504Z,1.73
2022-11-05T10:28:58.259Z,0.68
2022-11-05T10:32:00.531Z,1.33
2022-11-05T10:35:04.104Z,1.30
2022-11-05T10:38:05.784Z,0.75
2022-11-05T10:41:28.864Z,0.50
2022-11-05T10:44:45.150Z,0.63
2022-11-05T10:47:56.818Z,0.75
2022-11-05T10:50:58.474Z,0.90
2022-11-05T10:54:04.681Z,1.20
2022-11-05T10:57:29.510Z,1.15
2022-11-05T11:00:31.284Z,0.65
2022-11-05T11:03:39.150Z,1.00
2022-11-05T11:06:45.282Z,0.82
2022-11-05T11:09:48.445Z,0.88
2022-11-05T11:12:50.180Z,0.80
2022-11-05T11:15:51.988Z,0.65
2022-11-05T11:19:01.026Z,0.65
2022-11-05T11:22:05.777Z,0.52
2022-11-05T11:25:25.073Z,1.23
2022-11-05T11:28:52.101Z,0.90
2022-11-05T11:31:55.297Z,1.15
2022-11-05T11:34:58.190Z,0.73
2022-11-05T11:38:02.056Z,1.90
2022-11-05T11:41:22.472Z,0.70
2022-11-05T11:44:33.329Z,0.93
2022-11-05T11:47:35.188Z,1.02
2022-11-05T11:50:44.238Z,0.95
2022-11-05T11:53:48.112Z,1.77
2022-11-05T11:56:49.768Z,1.33
2022-11-05T12:00:11.668Z,0.75
2022-11-05T12:03:41.320Z,1.20
2022-11-05T12:06:46.246Z,0.85
2022-11-05T12:09:56.741Z,1.30
2022-11-05T12:13:11.115Z,0.85
2022-11-05T12:16:25.730Z,0.80
2022-11-05T12:19:27.512Z,0.88
2022-11-05T12:23:01.719Z,0.95
2022-11-05T12:26:37.162Z,1.10
2022-11-05T12:29:48.909Z,2.38
2022-11-05T12:33:16.847Z,1.20
2022-11-05T12:36:36.911Z,1.00
2022-11-05T12:39:50.728Z,1.27
2022-11-05T12:43:21.552Z,1.67
2022-11-05T12:46:36.645Z,2.15
2022-11-05T12:50:12.444Z,0.93
2022-11-05T12:53:17.293Z,1.45
2022-11-05T12:56:41.173Z,0.82
2022-11-05T12:59:56.964Z,0.40
2022-11-05T13:03:16.856Z,1.73
2022-11-05T13:06:22.012Z,0.70
2022-11-05T13:09:26.204Z,0.95
2022-11-05T13:12:28.208Z,1.15
2022-11-05T13:15:35.350Z,1.77
2022-11-05T13:18:52.623Z,1.40
2022-11-05T13:21:59.884Z,1.25
2022-11-05T13:25:33.973Z,0.40
2022-11-05T13:28:38.680Z,0.85
2022-11-05T13:31:46.917Z,1.60
2022-11-05T13:34:48.639Z,1.77
2022-11-05T13:38:18.348Z,1.98
2022-11-05T13:41:30.106Z,0.90
2022-11-05T13:44:48.301Z,1.38
2022-11-05T13:48:08.861Z,1.63
2022-11-05T13:51:23.435Z,1.20
2022-11-05T13:54:50.023Z,2.03
2022-11-05T13:57:57.728Z,1.08
2022-11-05T14:01:21.136Z,0.80
2022-11-05T14:04:40.197Z,0.68
2022-11-05T14:07:45.211Z,0.75
2022-11-05T14:11:07.508Z,2.10
2022-11-05T14:14:15.749Z,0.70
2022-11-05T14:17:26.705Z,0.93
2022-11-05T14:20:31.402Z,0.98
2022-11-05T14:23:40.324Z,0.95
2022-11-05T14:26:41.970Z,1.25
2022-11-05T14:29:49.673Z,0.75
2022-11-05T14:32:53.084Z,0.68
2022-11-05T14:36:20.610Z,1.35
2022-11-05T14:39:29.019Z,1.55
2022-11-05T14:42:30.823Z,2.05
2022-11-05T14:45:37.446Z,1.58
2022-11-05T14:48:52.995Z,1.17
2022-11-05T14:54:57.576Z,1.92
2022-11-05T14:57:59.304Z,0.80
2022-11-05T15:01:02.208Z,1.55
2022-11-05T15:04:32.790Z,1.10
2022-11-05T15:07:36.491Z,0.80
2022-11-05T15:10:38.185Z,1.42
2022-11-05T15:13:56.483Z,1.05
2022-11-05T15:17:19.674Z,1.10
2022-11-05T15:20:24.208Z,0.63
2022-11-05T15:23:29.603Z,0.50
2022-11-05T15:26:54.766Z,0.88
2022-11-05T15:29:56.538Z,0.60
2022-11-05T15:33:19.217Z,0.95
2022-11-05T15:36:26.948Z,1.35
2022-11-05T15:39:40.745Z,1.80
2022-11-05T15:42:42.718Z,0.93
2022-11-05T15:45:44.677Z,0.85
2022-11-05T15:48:52.741Z,1.48
2022-11-05T15:51:54.364Z,1.92
2022-11-05T15:55:11.883Z,1.42
2022-11-05T15:58:13.511Z,0.60
2022-11-05T16:01:33.820Z,1.23
2022-11-05T16:04:37.719Z,0.60
2022-11-05T16:07:45.769Z,1.98
2022-11-05T16:10:49.911Z,0.70
2022-11-05T16:13:52.177Z,1.02
2022-11-05T16:16:53.811Z,1.23
2022-11-05T16:19:56.109Z,0.80
2022-11-05T16:23:16.377Z,1.33
2022-11-05T16:29:57.114Z,1.17
2022-11-05T16:33:08.311Z,1.27
2022-11-05T16:36:10.055Z,0.43
2022-11-05T16:39:11.693Z,1.33
2022-11-05T16:42:34.328Z,0.82
2022-11-05T16:45:40.167Z,0.88
2022-11-05T16:48:42.956Z,0.85
2022-11-05T16:51:44.664Z,0.85
2022-11-05T16:54:46.380Z,1.33
2022-11-05T16:57:50.897Z,0.63
2022-11-05T17:01:02.666Z,1.35
2022-11-05T17:04:04.667Z,0.80
2022-11-05T17:07:06.315Z,1.40
2022-11-05T17:10:08.130Z,0.85
2022-11-05T17:13:15.337Z,0.65
2022-11-05T17:16:17.427Z,0.73
2022-11-05T17:19:19.073Z,0.73
2022-11-05T17:22:20.904Z,2.35
2022-11-05T17:25:22.987Z,0.50
2022-11-05T17:28:24.622Z,0.25
2022-11-05T17:31:27.273Z,1.02
2022-11-05T17:34:29.101Z,0.57
2022-11-05T17:37:30.929Z,1.15
2022-11-05T17:40:33.350Z,1.55
2022-11-05T17:43:35.221Z,0.40
2022-11-05T17:46:36.856Z,1.75
2022-11-05T17:49:38.482Z,0.60
2022-11-05T17:52:40.298Z,0.80
2022-11-05T17:55:42.752Z,0.30
2022-11-05T17:58:44.485Z,1.00
2022-11-05T18:01:46.377Z,0.50
2022-11-05T18:04:48.292Z,1.73
2022-11-05T18:07:50.041Z,1.70
2022-11-05T18:10:52.888Z,1.20
2022-11-05T18:13:54.810Z,1.10
2022-11-05T18:17:00.072Z,1.42
2022-11-05T18:20:01.945Z,2.17
2022-11-05T18:23:03.808Z,1.52
2022-11-05T18:26:11.981Z,1.95
2022-11-05T18:29:13.647Z,0.95
2022-11-05T18:32:15.278Z,1.33
2022-11-05T18:35:16.985Z,2.35
2022-11-05T18:38:18.639Z,1.77
2022-11-05T18:41:20.528Z,1.92
2022-11-05T18:44:22.785Z,2.08
2022-11-05T18:47:24.510Z,3.40
2022-11-05T18:50:26.245Z,1.88
2022-11-05T18:53:28.119Z,1.52
2022-11-05T18:56:29.818Z,2.75
2022-11-05T18:59:39.767Z,1.30
2022-11-05T19:02:42.937Z,3.78
2022-11-05T19:05:44.728Z,2.90
2022-11-05T19:08:47.094Z,2.67
2022-11-05T19:11:48.831Z,3.45
2022-11-05T19:14:50.635Z,3.42
2022-11-05T19:17:52.314Z,1.88
2022-11-05T19:20:53.943Z,1.92
2022-11-05T19:24:01.472Z,2.97
2022-11-05T19:27:03.114Z,2.95
2022-11-05T19:30:05.291Z,2.50
2022-11-05T19:33:07.041Z,4.78
2022-11-05T19:36:09.572Z,5.03
2022-11-05T19:39:12.860Z,5.07
2022-11-05T19:42:14.496Z,7.03
2022-11-05T19:45:42.996Z,10.15
2022-11-05T19:48:37.972Z,5.60
2022-11-05T19:51:40.112Z,5.00
2022-11-05T19:54:41.904Z,2.92
2022-11-05T19:57:44.864Z,3.50
2022-11-05T20:00:46.487Z,2.72
2022-11-05T20:03:48.609Z,2.05
2022-11-05T20:06:50.320Z,1.50
2022-11-05T20:09:52.023Z,2.28
2022-11-05T20:12:54.141Z,1.77
2022-11-05T20:15:55.967Z,2.03
2022-11-05T20:18:57.678Z,2.20
2022-11-05T20:22:00.530Z,3.25
2022-11-05T20:25:02.400Z,2.30
2022-11-05T20:28:04.134Z,2.60
2022-11-05T20:31:13.261Z,2.63
2022-11-05T20:34:15.026Z,2.47
2022-11-05T20:37:16.657Z,2.67
2022-11-05T20:40:18.365Z,2.83
2022-11-05T20:43:24.752Z,2.85
2022-11-05T20:46:29.291Z,6.97
2022-11-05T20:49:30.974Z,3.58
2022-11-05T20:52:33.290Z,2.97
2022-11-05T20:55:45.189Z,3.50
2022-11-05T20:58:47.345Z,3.83
2022-11-05T21:01:50.269Z,2.90
2022-11-05T21:04:52.272Z,3.33
2022-11-05T21:07:53.938Z,2.50
2022-11-05T21:10:56.003Z,2.60
2022-11-05T21:13:57.750Z,4.18
2022-11-05T21:16:59.388Z,2.95
2022-11-05T21:20:01.084Z,3.10
2022-11-05T21:23:03.000Z,4.45
2022-11-05T21:26:06.049Z,3.33
2022-11-05T21:29:07.781Z,3.08
2022-11-05T21:32:09.509Z,4.53
2022-11-05T21:35:11.157Z,3.42
2022-11-05T21:38:14.417Z,3.53
2022-11-05T21:41:16.195Z,2.45
2022-11-05T21:44:19.215Z,3.15
2022-11-05T21:47:20.957Z,2.22
2022-11-05T21:50:45.212Z,2.28
2022-11-05T21:54:05.920Z,1.98
2022-11-05T21:57:30.957Z,2.00
2022-11-05T22:00:32.574Z,1.98
2022-11-05T22:03:34.506Z,2.55
2022-11-05T22:06:36.133Z,1.05
2022-11-05T22:09:37.825Z,1.65
2022-11-05T22:12:39.896Z,1.50
2022-11-05T22:15:41.588Z,2.50
2022-11-05T22:18:43.219Z,1.05
2022-11-05T22:21:44.908Z,2.05
2022-11-05T22:24:46.747Z,1.80
2022-11-05T22:27:48.388Z,1.25
2022-11-05T22:30:50.051Z,2.80
2022-11-05T22:33:52.007Z,3.08
2022-11-05T22:36:53.721Z,2.45
2022-11-05T22:39:55.445Z,1.58
2022-11-05T22:42:57.310Z,1.00
